createdAt,value
2022-11-09T00:02:14.282Z,2.00
2022-11-09T00:04:40.661Z,1.85
2022-11-09T00:07:07.187Z,1.80
2022-11-09T00:09:33.639Z,1.90
2022-11-09T00:12:04.656Z,1.90
2022-11-09T00:14:31.342Z,1.83
2022-11-09T00:16:57.751Z,1.77
2022-11-09T00:19:24.384Z,1.92
2022-11-09T00:21:50.980Z,1.55
2022-11-09T00:24:17.390Z,2.15
2022-11-09T00:26:43.790Z,2.05
2022-11-09T00:29:10.247Z,1.98
2022-11-09T00:31:36.663Z,1.73
2022-11-09T00:34:03.225Z,1.60
2022-11-09T00:36:30.017Z,1.50
2022-11-09T00:38:58.880Z,1.48
2022-11-09T00:41:25.932Z,1.63
2022-11-09T00:43:52.567Z,1.80
2022-11-09T00:46:20.216Z,1.70
2022-11-09T00:48:47.051Z,1.65
2022-11-09T00:51:13.881Z,1.63
2022-11-09T00:53:40.320Z,1.55
2022-11-09T00:56:10.303Z,1.30
2022-11-09T00:58:38.234Z,1.90
2022-11-09T01:01:13.960Z,1.63
2022-11-09T01:03:40.823Z,1.55
2022-11-09T01:06:08.104Z,1.80
2022-11-09T01:08:35.473Z,1.60
2022-11-09T01:11:07.123Z,1.60
2022-11-09T01:13:33.848Z,1.50
2022-11-09T01:16:00.423Z,1.70
2022-11-09T01:18:26.840Z,1.35
2022-11-09T01:20:53.270Z,1.40
2022-11-09T01:23:20.641Z,1.48
2022-11-09T01:25:47.325Z,1.50
2022-11-09T01:28:13.772Z,1.38
2022-11-09T01:30:42.564Z,1.30
2022-11-09T01:33:11.365Z,1.10
2022-11-09T01:35:39.237Z,1.27
2022-11-09T01:38:06.859Z,1.55
2022-11-09T01:40:34.699Z,1.27
2022-11-09T01:43:19.779Z,1.25
2022-11-09T01:45:52.668Z,1.35
2022-11-09T01:48:37.776Z,1.35
2022-11-09T01:51:24.954Z,1.50
2022-11-09T01:53:54.743Z,1.40
2022-11-09T01:56:21.162Z,1.23
2022-11-09T01:58:50.727Z,1.00
2022-11-09T02:01:17.883Z,1.40
2022-11-09T02:03:52.219Z,1.40
2022-11-09T02:06:20.123Z,1.13
2022-11-09T02:08:47.269Z,1.00
2022-11-09T02:11:16.605Z,1.48
2022-11-09T02:13:47.024Z,1.30
2022-11-09T02:16:13.806Z,1.23
2022-11-09T02:18:52.015Z,1.20
2022-11-09T02:21:19.212Z,1.33
2022-11-09T02:23:46.147Z,1.35
2022-11-09T02:26:15.756Z,1.02
2022-11-09T02:28:42.403Z,1.23
2022-11-09T02:31:10.984Z,1.38
2022-11-09T02:33:45.314Z,1.30
2022-11-09T02:36:11.852Z,1.20
2022-11-09T02:38:38.315Z,1.40
2022-11-09T02:41:04.769Z,1.30
2022-11-09T02:43:31.516Z,1.30
2022-11-09T02:45:57.903Z,1.33
2022-11-09T02:48:24.394Z,1.20
2022-11-09T02:50:50.746Z,1.40
2022-11-09T02:53:17.543Z,1.45
2022-11-09T02:55:44.087Z,1.20
2022-11-09T02:58:10.564Z,1.02
2022-11-09T03:00:36.974Z,1.30
2022-11-09T03:03:04.156Z,1.40
2022-11-09T03:05:30.545Z,1.02
2022-11-09T03:07:57.117Z,1.30
2022-11-09T03:10:23.533Z,1.20
2022-11-09T03:12:49.914Z,1.10
2022-11-09T03:15:16.425Z,1.15
2022-11-09T03:17:42.806Z,1.20
2022-11-09T03:20:09.762Z,1.30
2022-11-09T03:22:36.115Z,1.35
2022-11-09T03:25:02.572Z,1.40
2022-11-09T03:27:28.924Z,1.25
2022-11-09T03:29:55.367Z,1.70
2022-11-09T03:32:21.753Z,1.13
2022-11-09T03:34:49.141Z,1.23
2022-11-09T03:37:15.588Z,1.33
2022-11-09T03:39:42.007Z,1.30
2022-11-09T03:42:08.379Z,1.45
2022-11-09T03:44:34.745Z,1.58
2022-11-09T03:47:01.175Z,1.40
2022-11-09T03:49:27.559Z,1.08
2022-11-09T03:51:53.935Z,1.38
2022-11-09T03:54:20.354Z,1.40
2022-11-09T03:56:46.738Z,1.42
2022-11-09T03:59:13.147Z,1.30
2022-11-09T04:01:39.662Z,1.27
2022-11-09T04:04:06.064Z,1.08
2022-11-09T04:06:32.612Z,1.38
2022-11-09T04:08:59.013Z,1.58
2022-11-09T04:11:25.434Z,1.17
2022-11-09T04:13:51.833Z,1.20
2022-11-09T04:16:18.245Z,1.35
2022-11-09T04:18:44.609Z,1.20
2022-11-09T04:21:10.988Z,1.60
2022-11-09T04:23:37.898Z,1.40
2022-11-09T04:26:04.328Z,1.35
2022-11-09T04:28:30.697Z,1.13
2022-11-09T04:31:00.606Z,1.48
2022-11-09T04:33:26.994Z,1.40
2022-11-09T04:35:53.373Z,1.40
2022-11-09T04:38:19.740Z,1.30
2022-11-09T04:40:46.113Z,1.42
2022-11-09T04:43:13.882Z,1.50
2022-11-09T04:45:40.317Z,1.58
2022-11-09T04:48:07.520Z,1.45
2022-11-09T04:50:34.514Z,1.40
2022-11-09T04:53:08.833Z,1.40
2022-11-09T04:55:35.613Z,1.30
2022-11-09T04:58:02.061Z,1.10
2022-11-09T05:00:28.434Z,1.40
2022-11-09T05:02:54.807Z,1.38
2022-11-09T05:05:21.170Z,1.38
2022-11-09T05:07:47.525Z,1.40
2022-11-09T05:10:14.199Z,1.42
2022-11-09T05:12:45.636Z,1.48
2022-11-09T05:15:12.455Z,1.65
2022-11-09T05:17:38.824Z,1.40
2022-11-09T05:20:05.528Z,1.80
2022-11-09T05:22:50.572Z,1.40
2022-11-09T05:25:17.030Z,1.45
2022-11-09T05:27:43.392Z,1.38
2022-11-09T05:30:10.288Z,1.60
2022-11-09T05:32:38.945Z,1.23
2022-11-09T05:35:05.668Z,1.90
2022-11-09T05:37:32.044Z,1.55
2022-11-09T05:39:58.412Z,1.50
2022-11-09T05:42:25.143Z,1.48
2022-11-09T05:44:51.536Z,1.27
2022-11-09T05:47:19.310Z,1.75
2022-11-09T05:49:45.668Z,1.73
2022-11-09T05:52:12.762Z,1.40
2022-11-09T05:54:39.128Z,1.55
2022-11-09T05:57:05.499Z,1.40
2022-11-09T05:59:31.864Z,1.33
2022-11-09T06:01:58.423Z,1.30
2022-11-09T06:04:24.795Z,1.42
2022-11-09T06:06:51.250Z,1.65
2022-11-09T06:09:17.654Z,1.50
2022-11-09T06:11:44.046Z,1.65
2022-11-09T06:14:10.400Z,1.73
2022-11-09T06:16:36.788Z,1.50
2022-11-09T06:19:03.196Z,1.67
2022-11-09T06:21:29.560Z,1.30
2022-11-09T06:23:55.923Z,1.45
2022-11-09T06:26:22.284Z,1.92
2022-11-09T06:28:48.635Z,1.63
2022-11-09T06:31:16.845Z,1.50
2022-11-09T06:33:43.373Z,1.63
2022-11-09T06:36:11.215Z,1.50
2022-11-09T06:38:37.598Z,1.38
2022-11-09T06:41:04.025Z,1.83
2022-11-09T06:43:30.437Z,1.70
2022-11-09T06:45:56.864Z,3.25
2022-11-09T06:48:23.889Z,2.63
2022-11-09T06:50:50.321Z,2.75
2022-11-09T06:53:17.481Z,1.98
2022-11-09T06:55:49.874Z,2.00
2022-11-09T06:58:17.058Z,2.15
2022-11-09T07:00:44.360Z,1.90
2022-11-09T07:03:19.147Z,1.85
2022-11-09T07:05:46.420Z,1.38
2022-11-09T07:08:13.828Z,1.70
2022-11-09T07:10:40.587Z,1.40
2022-11-09T07:13:07.475Z,1.60
2022-11-09T07:15:35.024Z,1.25
2022-11-09T07:18:02.911Z,1.20
2022-11-09T07:20:30.901Z,1.75
2022-11-09T07:22:57.357Z,1.55
2022-11-09T07:25:24.991Z,1.35
2022-11-09T07:27:51.710Z,1.30
2022-11-09T07:30:18.161Z,1.67
2022-11-09T07:33:07.931Z,1.20
2022-11-09T07:35:30.980Z,1.50
2022-11-09T07:38:01.425Z,1.90
2022-11-09T07:40:27.895Z,1.58
2022-11-09T07:42:58.181Z,1.40
2022-11-09T07:45:24.710Z,1.50
2022-11-09T07:47:55.521Z,1.63
2022-11-09T07:50:21.916Z,1.40
2022-11-09T07:52:48.279Z,1.38
2022-11-09T07:55:14.704Z,1.25
2022-11-09T07:57:41.139Z,1.60
2022-11-09T08:00:08.233Z,1.35
2022-11-09T08:02:35.178Z,1.42
2022-11-09T08:05:01.600Z,1.70
2022-11-09T08:07:27.984Z,1.50
2022-11-09T08:09:54.339Z,1.48
2022-11-09T08:12:20.804Z,1.75
2022-11-09T08:14:47.175Z,1.70
2022-11-09T08:17:13.580Z,1.60
2022-11-09T08:19:39.967Z,1.50
2022-11-09T08:22:06.352Z,1.60
2022-11-09T08:24:32.764Z,1.50
2022-11-09T08:26:59.140Z,1.50
2022-11-09T08:29:25.521Z,1.40
2022-11-09T08:31:51.939Z,1.60
2022-11-09T08:34:18.476Z,1.90
2022-11-09T08:36:44.863Z,1.70
2022-11-09T08:39:11.291Z,1.60
2022-11-09T08:41:37.679Z,2.13
2022-11-09T08:44:04.057Z,1.88
2022-11-09T08:46:30.489Z,1.67
2022-11-09T08:48:56.890Z,1.80
2022-11-09T08:51:23.340Z,1.58
2022-11-09T08:53:50.759Z,1.67
2022-11-09T08:56:18.992Z,1.70
2022-11-09T08:58:45.980Z,1.55
2022-11-09T09:01:16.990Z,2.10
2022-11-09T09:03:43.999Z,1.85
2022-11-09T09:06:10.411Z,1.70
2022-11-09T09:08:36.812Z,1.40
2022-11-09T09:11:04.674Z,1.40
2022-11-09T09:13:32.222Z,2.00
2022-11-09T09:15:59.012Z,1.40
2022-11-09T09:18:25.432Z,1.67
2022-11-09T09:20:51.828Z,1.40
2022-11-09T09:23:18.355Z,1.77
2022-11-09T09:25:44.969Z,1.70
2022-11-09T09:28:11.504Z,1.52
2022-11-09T09:30:37.869Z,1.75
2022-11-09T09:33:04.265Z,1.83
2022-11-09T09:35:30.660Z,1.42
2022-11-09T09:37:58.104Z,1.33
2022-11-09T09:40:30.189Z,1.70
2022-11-09T09:42:56.845Z,1.60
2022-11-09T09:45:28.167Z,1.35
2022-11-09T09:48:05.732Z,1.30
2022-11-09T09:50:40.491Z,1.40
2022-11-09T09:53:24.881Z,1.60
2022-11-09T09:56:04.900Z,1.42
2022-11-09T09:58:33.616Z,1.30
2022-11-09T10:01:15.750Z,1.65
2022-11-09T10:03:42.251Z,1.42
2022-11-09T10:06:25.697Z,1.65
2022-11-09T10:09:00.208Z,1.30
2022-11-09T10:11:51.290Z,1.80
2022-11-09T10:14:36.531Z,1.48
2022-11-09T10:17:11.918Z,1.40
2022-11-09T10:20:17.295Z,1.60
2022-11-09T10:23:01.347Z,1.42
2022-11-09T10:26:02.879Z,1.33
2022-11-09T10:28:17.704Z,1.45
2022-11-09T10:30:44.485Z,1.35
2022-11-09T10:33:10.755Z,1.65
2022-11-09T10:35:45.234Z,1.35
2022-11-09T10:38:33.004Z,1.40
2022-11-09T10:41:23.772Z,1.23
2022-11-09T10:43:50.225Z,1.30
2022-11-09T10:46:17.449Z,1.27
2022-11-09T10:48:43.875Z,1.50
2022-11-09T10:51:31.293Z,1.20
2022-11-09T10:54:22.671Z,1.40
2022-11-09T10:57:07.601Z,1.15
2022-11-09T10:59:39.084Z,1.30
2022-11-09T11:02:24.162Z,1.17
2022-11-09T11:04:52.130Z,1.33
2022-11-09T11:07:22.276Z,1.05
2022-11-09T11:09:48.688Z,1.10
2022-11-09T11:12:21.914Z,1.40
2022-11-09T11:14:48.375Z,1.17
2022-11-09T11:17:22.552Z,1.38
2022-11-09T11:19:48.986Z,1.17
2022-11-09T11:22:23.150Z,1.60
2022-11-09T11:24:55.542Z,1.20
2022-11-09T11:27:51.291Z,1.27
2022-11-09T11:30:22.879Z,1.48
2022-11-09T11:32:50.914Z,1.10
2022-11-09T11:35:32.390Z,1.33
2022-11-09T11:38:21.804Z,1.48
2022-11-09T11:41:22.005Z,1.42
2022-11-09T11:43:56.404Z,1.05
2022-11-09T11:46:31.254Z,1.40
2022-11-09T11:49:22.356Z,1.50
2022-11-09T11:52:25.857Z,1.10
2022-11-09T11:55:07.248Z,1.52
2022-11-09T11:58:14.658Z,1.15
2022-11-09T12:00:54.298Z,1.05
2022-11-09T12:03:31.367Z,1.25
2022-11-09T12:06:09.691Z,1.05
2022-11-09T12:09:14.584Z,1.10
2022-11-09T12:11:54.401Z,1.30
2022-11-09T12:14:33.133Z,1.10
2022-11-09T12:17:21.088Z,1.20
2022-11-09T12:20:16.450Z,1.20
2022-11-09T12:22:55.942Z,1.50
2022-11-09T12:25:40.584Z,1.40
2022-11-09T12:28:29.758Z,1.48
2022-11-09T12:31:27.889Z,1.25
2022-11-09T12:33:58.971Z,1.35
2022-11-09T12:36:40.123Z,1.23
2022-11-09T12:39:11.985Z,1.05
2022-11-09T12:41:38.865Z,1.27
2022-11-09T12:44:19.429Z,1.15
2022-11-09T12:47:16.267Z,1.45
2022-11-09T12:49:45.044Z,1.02
2022-11-09T12:52:13.953Z,0.90
2022-11-09T12:54:48.977Z,1.10
2022-11-09T12:57:22.065Z,1.38
2022-11-09T12:59:50.295Z,1.10
2022-11-09T13:02:24.911Z,1.15
2022-11-09T13:05:05.985Z,1.10
2022-11-09T13:07:44.327Z,1.20
2022-11-09T13:10:23.784Z,1.20
2022-11-09T13:12:50.191Z,1.17
2022-11-09T13:15:25.739Z,1.15
2022-11-09T13:18:00.114Z,1.40
2022-11-09T13:23:54.712Z,1.10
2022-11-09T13:26:25.178Z,1.40
2022-11-09T13:29:22.588Z,1.38
2022-11-09T13:32:21.398Z,1.60
2022-11-09T13:34:50.038Z,9.88
2022-11-09T13:37:38.257Z,8.35
2022-11-09T13:40:32.714Z,2.65
2022-11-09T13:43:08.077Z,3.00
2022-11-09T13:45:35.767Z,1.85
2022-11-09T13:48:02.808Z,3.22
2022-11-09T13:50:31.149Z,0.90
2022-11-09T13:52:59.377Z,1.10
2022-11-09T13:55:41.768Z,1.15
2022-11-09T13:58:23.620Z,1.67
2022-11-09T14:00:50.069Z,1.60
2022-11-09T14:03:20.927Z,0.98
2022-11-09T14:05:50.800Z,1.00
2022-11-09T14:08:27.338Z,1.08
2022-11-09T14:11:06.679Z,1.45
2022-11-09T14:13:52.155Z,1.00
2022-11-09T14:16:27.508Z,1.65
2022-11-09T14:19:15.840Z,1.20
2022-11-09T14:21:48.378Z,1.27
2022-11-09T14:27:02.770Z,1.40
2022-11-09T14:29:35.765Z,1.23
2022-11-09T14:32:18.316Z,0.98
2022-11-09T14:34:44.734Z,1.50
2022-11-09T14:37:13.208Z,1.42
2022-11-09T14:39:39.750Z,1.70
2022-11-09T14:42:06.635Z,1.58
2022-11-09T14:44:42.153Z,1.17
2022-11-09T14:47:17.784Z,1.67
2022-11-09T14:49:45.890Z,1.45
2022-11-09T14:52:17.569Z,1.40
2022-11-09T14:54:45.846Z,1.00
2022-11-09T14:57:14.989Z,1.10
2022-11-09T14:59:43.236Z,1.25
2022-11-09T15:02:15.011Z,1.20
2022-11-09T15:04:52.419Z,1.15
2022-11-09T15:07:21.524Z,1.10
2022-11-09T15:09:51.416Z,1.17
2022-11-09T15:12:20.760Z,1.35
2022-11-09T15:14:53.923Z,1.25
2022-11-09T15:17:27.764Z,1.80
2022-11-09T15:20:02.406Z,1.23
2022-11-09T15:22:52.871Z,1.30
2022-11-09T15:25:35.781Z,1.20
2022-11-09T15:28:20.048Z,1.45
2022-11-09T15:30:52.276Z,1.20
2022-11-09T15:33:19.028Z,1.23
2022-11-09T15:35:55.547Z,1.30
2022-11-09T15:38:35.784Z,1.60
2022-11-09T15:41:03.927Z,1.17
2022-11-09T15:43:30.399Z,1.70
2022-11-09T15:45:59.141Z,1.27
2022-11-09T15:48:25.531Z,1.25
2022-11-09T15:50:52.062Z,1.30
2022-11-09T15:53:18.694Z,1.02
2022-11-09T15:55:45.188Z,1.20
2022-11-09T15:58:14.227Z,1.30
2022-11-09T16:00:41.331Z,1.60
2022-11-09T16:03:09.228Z,1.40
2022-11-09T16:05:35.920Z,1.58
2022-11-09T16:08:02.487Z,1.77
2022-11-09T16:10:30.370Z,1.58
2022-11-09T16:12:57.509Z,1.40
2022-11-09T16:15:24.199Z,1.55
2022-11-09T16:17:52.993Z,1.63
2022-11-09T16:20:20.373Z,1.85
2022-11-09T16:22:47.419Z,1.73
2022-11-09T16:25:13.990Z,1.90
2022-11-09T16:27:50.079Z,1.40
2022-11-09T16:30:17.409Z,1.77
2022-11-09T16:32:43.820Z,1.35
2022-11-09T16:35:28.044Z,1.88
2022-11-09T16:37:56.149Z,1.33
2022-11-09T16:40:22.762Z,1.33
2022-11-09T16:42:50.183Z,1.30
2022-11-09T16:45:17.209Z,1.40
2022-11-09T16:47:46.718Z,1.30
2022-11-09T16:50:13.455Z,1.33
2022-11-09T16:52:39.848Z,1.42
2022-11-09T16:55:08.602Z,1.52
2022-11-09T16:57:35.454Z,1.48
2022-11-09T17:00:01.880Z,1.83
2022-11-09T17:02:28.372Z,1.50
2022-11-09T17:04:54.770Z,1.40
2022-11-09T17:07:21.441Z,1.50
2022-11-09T17:09:47.872Z,1.50
2022-11-09T17:12:14.579Z,1.15
2022-11-09T17:14:40.956Z,1.73
2022-11-09T17:17:07.375Z,1.30
2022-11-09T17:19:35.436Z,1.45
2022-11-09T17:22:01.918Z,1.48
2022-11-09T17:24:28.715Z,1.40
2022-11-09T17:26:55.129Z,1.30
2022-11-09T17:29:22.671Z,3.85
2022-11-09T17:31:49.061Z,1.88
2022-11-09T17:34:15.751Z,1.80
2022-11-09T17:37:03.014Z,1.35
2022-11-09T17:39:28.603Z,1.58
2022-11-09T17:41:55.004Z,1.30
2022-11-09T17:44:21.363Z,1.63
2022-11-09T17:46:47.953Z,2.08
2022-11-09T17:49:14.343Z,1.60
2022-11-09T17:51:40.736Z,1.58
2022-11-09T17:54:07.144Z,1.95
2022-11-09T17:56:34.101Z,1.80
2022-11-09T17:59:00.556Z,2.10
2022-11-09T18:01:27.048Z,1.60
2022-11-09T18:03:53.461Z,1.63
2022-11-09T18:06:23.541Z,1.33
2022-11-09T18:09:09.550Z,1.83
2022-11-09T18:11:36.448Z,1.50
2022-11-09T18:14:03.399Z,1.98
2022-11-09T18:16:30.011Z,1.95
2022-11-09T18:19:01.637Z,1.90
2022-11-09T18:21:28.561Z,2.47
2022-11-09T18:23:55.111Z,2.13
2022-11-09T18:26:21.836Z,1.52
2022-11-09T18:28:48.212Z,1.80
2022-11-09T18:31:14.617Z,2.10
2022-11-09T18:33:42.681Z,2.00
2022-11-09T18:36:12.131Z,2.20
2022-11-09T18:38:39.160Z,2.10
2022-11-09T18:41:17.689Z,2.03
2022-11-09T18:43:44.638Z,2.10
2022-11-09T18:46:13.348Z,1.98
2022-11-09T18:48:40.114Z,1.75
2022-11-09T18:51:07.884Z,2.33
2022-11-09T18:53:40.540Z,1.48
2022-11-09T18:56:18.150Z,1.65
2022-11-09T18:58:45.597Z,1.92
2022-11-09T19:01:12.034Z,1.50
2022-11-09T19:03:38.477Z,1.65
2022-11-09T19:06:12.461Z,1.60
2022-11-09T19:08:57.433Z,1.83
2022-11-09T19:11:23.972Z,2.42
2022-11-09T19:13:50.348Z,1.70
2022-11-09T19:16:17.429Z,1.92
2022-11-09T19:18:44.064Z,2.03
2022-11-09T19:21:25.827Z,2.00
2022-11-09T19:23:52.526Z,1.77
2022-11-09T19:26:19.397Z,2.20
2022-11-09T19:28:45.804Z,1.70
2022-11-09T19:31:14.180Z,1.85
2022-11-09T19:33:40.645Z,2.00
2022-11-09T19:36:29.262Z,2.40
2022-11-09T19:38:54.472Z,1.80
2022-11-09T19:41:21.533Z,2.08
2022-11-09T19:43:52.310Z,2.13
2022-11-09T19:46:18.696Z,1.77
2022-11-09T19:48:46.304Z,2.30
2022-11-09T19:51:14.201Z,2.00
2022-11-09T19:53:42.561Z,2.58
2022-11-09T19:56:09.513Z,2.28
2022-11-09T19:58:35.982Z,2.33
2022-11-09T20:01:09.694Z,1.92
2022-11-09T20:03:36.684Z,2.50
2022-11-09T20:06:05.178Z,2.72
2022-11-09T20:08:37.739Z,2.28
2022-11-09T20:13:31.385Z,1.92
2022-11-09T20:16:10.148Z,2.47
2022-11-09T20:18:38.173Z,2.25
2022-11-09T20:21:06.731Z,2.55
2022-11-09T20:23:33.318Z,2.30
2022-11-09T20:26:07.184Z,2.20
2022-11-09T20:28:33.574Z,2.60
2022-11-09T20:31:00.206Z,2.00
2022-11-09T20:33:26.624Z,2.10
2022-11-09T20:35:56.231Z,2.17
2022-11-09T20:38:23.516Z,2.20
2022-11-09T20:41:10.456Z,2.42
2022-11-09T20:43:37.584Z,2.42
2022-11-09T20:46:09.713Z,2.55
2022-11-09T20:48:53.569Z,2.33
2022-11-09T20:51:22.401Z,2.00
2022-11-09T20:53:50.083Z,2.33
2022-11-09T20:56:17.172Z,2.25
2022-11-09T20:58:43.569Z,2.78
2022-11-09T21:01:12.847Z,2.50
2022-11-09T21:03:39.632Z,2.47
2022-11-09T21:06:07.313Z,2.42
2022-11-09T21:08:34.067Z,2.55
2022-11-09T21:11:01.882Z,2.60
2022-11-09T21:13:28.520Z,2.53
2022-11-09T21:15:55.140Z,2.15
2022-11-09T21:18:21.785Z,2.08
2022-11-09T21:20:48.387Z,2.20
2022-11-09T21:23:14.710Z,2.45
2022-11-09T21:26:00.885Z,2.78
2022-11-09T21:28:46.342Z,2.00
2022-11-09T21:31:13.465Z,2.67
2022-11-09T21:33:40.156Z,2.42
2022-11-09T21:36:11.523Z,2.25
2022-11-09T21:38:38.056Z,2.58
2022-11-09T21:41:25.229Z,2.50
2022-11-09T21:43:57.721Z,2.88
2022-11-09T21:46:24.421Z,2.15
2022-11-09T21:48:50.979Z,2.20
2022-11-09T21:51:17.642Z,2.10
2022-11-09T21:53:43.996Z,2.20
2022-11-09T21:56:10.445Z,2.08
2022-11-09T21:58:36.807Z,2.40
2022-11-09T22:01:05.597Z,2.10
2022-11-09T22:03:33.138Z,1.85
2022-11-09T22:05:59.602Z,2.40
2022-11-09T22:08:26.213Z,2.25
2022-11-09T22:10:52.808Z,2.47
2022-11-09T22:13:38.053Z,2.72
2022-11-09T22:16:09.230Z,2.30
2022-11-09T22:18:55.366Z,2.20
2022-11-09T22:21:22.958Z,2.10
2022-11-09T22:23:49.744Z,2.17
2022-11-09T22:26:16.170Z,2.05
2022-11-09T22:28:42.670Z,2.17
2022-11-09T22:31:09.435Z,2.38
2022-11-09T22:33:36.157Z,2.38
2022-11-09T22:36:05.498Z,2.70
2022-11-09T22:38:32.727Z,2.42
2022-11-09T22:41:03.297Z,2.72
2022-11-09T22:43:33.801Z,2.78
2022-11-09T22:46:04.868Z,2.15
2022-11-09T22:48:32.597Z,2.95
2022-11-09T22:50:59.222Z,2.40
2022-11-09T22:53:26.049Z,2.90
2022-11-09T22:55:56.897Z,2.90
2022-11-09T22:58:23.628Z,3.20
2022-11-09T23:00:50.462Z,3.03
2022-11-09T23:03:17.340Z,2.70
2022-11-09T23:05:44.433Z,2.70
2022-11-09T23:08:11.074Z,2.65
2022-11-09T23:10:37.904Z,2.90
2022-11-09T23:13:04.749Z,3.10
2022-11-09T23:15:31.296Z,3.42
2022-11-09T23:18:16.829Z,3.67
2022-11-09T23:20:43.263Z,3.30
2022-11-09T23:23:10.162Z,3.85
2022-11-09T23:25:54.911Z,5.25
2022-11-09T23:28:21.260Z,4.85
2022-11-09T23:30:47.763Z,4.20
2022-11-09T23:33:14.261Z,4.43
2022-11-09T23:35:40.672Z,4.50
2022-11-09T23:38:07.051Z,4.85
2022-11-09T23:40:35.206Z,4.10
2022-11-09T23:43:07.076Z,4.15
2022-11-09T23:45:34.981Z,5.28
2022-11-09T23:48:01.521Z,5.30
2022-11-09T23:50:28.111Z,4.85
2022-11-09T23:52:58.521Z,6.00
2022-11-09T23:55:26.129Z,6.53
2022-11-09T23:57:52.557Z,6.50
